createdAt,value
2023-06-29T00:01:48.068Z,98418.84
2023-06-29T00:04:23.202Z,98413.84
2023-06-29T00:06:55.775Z,98410.44
2023-06-29T00:09:28.964Z,98414.66
2023-06-29T00:12:01.260Z,98405.78
2023-06-29T00:14:33.570Z,98414.19
2023-06-29T00:17:05.523Z,98416.28
2023-06-29T00:19:38.385Z,98407.47
2023-06-29T00:22:10.617Z,98404.94
2023-06-29T00:24:46.010Z,98404.59
2023-06-29T00:27:17.964Z,98406.66
2023-06-29T00:29:50.567Z,98399.19
2023-06-29T00:32:22.544Z,98408.47
2023-06-29T00:34:55.157Z,98409.88
2023-06-29T00:37:27.142Z,98416.34
2023-06-29T00:39:59.759Z,98415.56
2023-06-29T00:42:31.757Z,98410.78
2023-06-29T00:45:06.261Z,98402.81
2023-06-29T00:47:38.346Z,98400.22
2023-06-29T00:50:12.902Z,98403.97
2023-06-29T00:52:45.947Z,98398.81
2023-06-29T00:55:19.013Z,98406.09
2023-06-29T00:57:50.957Z,98399.72
2023-06-29T01:00:23.975Z,98404.94
2023-06-29T01:02:56.447Z,98406.44
2023-06-29T01:05:35.807Z,98410.72
2023-06-29T01:08:19.746Z,98398.09
2023-06-29T01:10:52.889Z,98400.47
2023-06-29T01:13:26.900Z,98390.41
2023-06-29T01:16:00.946Z,98394.91
2023-06-29T01:18:34.181Z,98395.88
2023-06-29T01:21:06.775Z,98400.88
2023-06-29T01:23:40.598Z,98394.25
2023-06-29T01:26:13.558Z,98387.41
2023-06-29T01:28:47.799Z,98399.00
2023-06-29T01:31:20.510Z,98394.41
2023-06-29T01:33:52.851Z,98393.84
2023-06-29T01:36:43.981Z,98385.25
2023-06-29T01:39:24.927Z,98383.59
2023-06-29T01:41:58.448Z,98385.94
2023-06-29T01:44:30.444Z,98386.63
2023-06-29T01:47:08.906Z,98379.44
2023-06-29T01:49:41.203Z,98380.72
2023-06-29T01:52:40.165Z,98371.44
2023-06-29T01:55:13.006Z,98371.28
2023-06-29T01:57:45.805Z,98378.72
2023-06-29T02:00:19.602Z,98374.81
2023-06-29T02:02:51.712Z,98378.06
2023-06-29T02:05:25.427Z,98400.13
2023-06-29T02:07:59.200Z,98395.81
2023-06-29T02:10:31.651Z,98392.84
2023-06-29T02:13:04.009Z,98395.09
2023-06-29T02:15:36.790Z,98377.47
2023-06-29T02:18:11.966Z,98388.81
2023-06-29T02:20:47.308Z,98372.50
2023-06-29T02:23:19.266Z,98383.56
2023-06-29T02:25:55.872Z,98374.97
2023-06-29T02:28:28.204Z,98384.84
2023-06-29T02:31:00.940Z,98364.75
2023-06-29T02:33:34.016Z,98367.00
2023-06-29T02:36:06.923Z,98361.34
2023-06-29T02:38:39.080Z,98359.19
2023-06-29T02:41:12.413Z,98347.84
2023-06-29T02:43:44.850Z,98361.69
2023-06-29T02:46:17.646Z,98356.69
2023-06-29T02:48:50.468Z,98361.34
2023-06-29T02:51:23.475Z,98363.88
2023-06-29T02:53:57.737Z,98362.81
2023-06-29T02:56:30.761Z,98358.03
2023-06-29T02:59:03.080Z,98359.00
2023-06-29T03:01:36.736Z,98358.00
2023-06-29T03:04:08.743Z,98341.59
2023-06-29T03:06:44.118Z,98348.97
2023-06-29T03:09:16.058Z,98353.22
2023-06-29T03:11:49.064Z,98354.34
2023-06-29T03:14:23.061Z,98356.31
2023-06-29T03:16:55.817Z,98356.53
2023-06-29T03:19:28.154Z,98366.91
2023-06-29T03:22:00.475Z,98375.34
2023-06-29T03:24:33.105Z,98363.19
2023-06-29T03:27:07.328Z,98376.41
2023-06-29T03:29:40.472Z,98381.78
2023-06-29T03:32:12.390Z,98371.31
2023-06-29T03:34:45.206Z,98360.50
2023-06-29T03:37:17.105Z,98355.91
2023-06-29T03:39:50.241Z,98359.88
2023-06-29T03:42:22.569Z,98354.03
2023-06-29T03:44:55.759Z,98354.13
2023-06-29T03:47:27.741Z,98339.19
2023-06-29T03:50:00.807Z,98349.25
2023-06-29T03:52:32.686Z,98344.69
2023-06-29T03:55:06.058Z,98353.22
2023-06-29T03:57:38.368Z,98343.91
2023-06-29T04:00:11.617Z,98352.56
2023-06-29T04:02:46.413Z,98345.72
2023-06-29T04:05:19.143Z,98363.59
2023-06-29T04:07:51.696Z,98359.47
2023-06-29T04:10:24.079Z,98365.66
2023-06-29T04:12:56.821Z,98363.00
2023-06-29T04:15:29.332Z,98361.44
2023-06-29T04:18:01.832Z,98358.44
2023-06-29T04:20:34.108Z,98351.16
2023-06-29T04:23:07.371Z,98367.88
2023-06-29T04:25:43.756Z,98350.44
2023-06-29T04:28:16.867Z,98357.59
2023-06-29T04:30:51.902Z,98343.50
2023-06-29T04:33:24.684Z,98349.69
2023-06-29T04:35:57.433Z,98342.50
2023-06-29T04:38:30.137Z,98342.38
2023-06-29T04:41:05.405Z,98346.19
2023-06-29T04:43:38.432Z,98341.69
2023-06-29T04:46:11.217Z,98342.56
2023-06-29T04:48:47.387Z,98324.56
2023-06-29T04:51:20.286Z,98323.34
2023-06-29T04:53:52.243Z,98329.84
2023-06-29T04:56:24.972Z,98326.34
2023-06-29T04:58:57.276Z,98328.03
2023-06-29T05:01:30.818Z,98330.38
2023-06-29T05:04:03.147Z,98332.97
2023-06-29T05:06:36.040Z,98340.19
2023-06-29T05:09:08.363Z,98336.38
2023-06-29T05:11:40.993Z,98321.88
2023-06-29T05:14:12.917Z,98332.59
2023-06-29T05:16:45.718Z,98325.09
2023-06-29T05:19:18.817Z,98328.22
2023-06-29T05:21:50.749Z,98334.16
2023-06-29T05:24:24.369Z,98323.44
2023-06-29T05:26:57.813Z,98333.72
2023-06-29T05:29:31.060Z,98316.41
2023-06-29T05:34:57.436Z,98325.53
2023-06-29T05:37:32.477Z,98324.09
2023-06-29T05:40:05.554Z,98313.72
2023-06-29T05:42:38.836Z,98319.41
2023-06-29T05:45:11.236Z,98327.25
2023-06-29T05:47:44.828Z,98324.34
2023-06-29T05:50:17.486Z,98332.91
2023-06-29T05:52:51.781Z,98322.69
2023-06-29T05:55:25.155Z,98330.31
2023-06-29T05:57:58.412Z,98329.59
2023-06-29T06:00:31.760Z,98329.75
2023-06-29T06:03:05.139Z,98336.63
2023-06-29T06:05:38.132Z,98325.59
2023-06-29T06:08:10.500Z,98330.09
2023-06-29T06:10:44.741Z,98340.03
2023-06-29T06:13:17.041Z,98330.19
2023-06-29T06:15:52.509Z,98329.28
2023-06-29T06:18:27.073Z,98351.31
2023-06-29T06:20:59.000Z,98349.44
2023-06-29T06:23:34.345Z,98343.16
2023-06-29T06:26:07.963Z,98346.84
2023-06-29T06:28:40.332Z,98357.81
2023-06-29T06:31:28.660Z,98350.63
2023-06-29T06:34:05.826Z,98350.00
2023-06-29T06:36:39.722Z,98352.41
2023-06-29T06:39:12.868Z,98346.00
2023-06-29T06:41:45.696Z,98349.72
2023-06-29T06:44:21.830Z,98356.19
2023-06-29T06:46:55.352Z,98350.31
2023-06-29T06:49:27.480Z,98325.97
2023-06-29T06:52:03.852Z,98344.69
2023-06-29T06:54:35.883Z,98341.78
2023-06-29T06:57:11.307Z,98336.72
2023-06-29T06:59:43.673Z,98336.63
2023-06-29T07:02:17.153Z,98334.53
2023-06-29T07:04:49.673Z,98330.78
2023-06-29T07:07:22.131Z,98322.94
2023-06-29T07:09:56.006Z,98326.66
2023-06-29T07:12:28.343Z,98327.22
2023-06-29T07:15:00.465Z,98320.09
2023-06-29T07:17:34.272Z,98323.69
2023-06-29T07:25:19.876Z,98316.50
2023-06-29T07:27:53.148Z,98324.56
2023-06-29T07:30:25.636Z,98316.25
2023-06-29T07:32:59.075Z,98319.50
2023-06-29T07:35:31.564Z,98317.88
2023-06-29T07:40:54.361Z,98315.41
2023-06-29T07:43:26.511Z,98305.94
2023-06-29T07:46:00.053Z,98324.41
2023-06-29T07:48:32.070Z,98317.78
2023-06-29T07:51:06.755Z,98307.38
2023-06-29T07:53:39.097Z,98305.03
2023-06-29T07:56:12.228Z,98303.09
2023-06-29T07:58:44.701Z,98300.06
2023-06-29T08:01:19.684Z,98302.78
2023-06-29T08:04:02.212Z,98303.22
2023-06-29T08:09:16.321Z,98301.47
2023-06-29T08:11:48.300Z,98293.00
2023-06-29T08:14:20.207Z,98304.22
2023-06-29T08:16:53.721Z,98300.59
2023-06-29T08:19:25.777Z,98310.25
2023-06-29T08:22:00.632Z,98304.72
2023-06-29T08:24:32.610Z,98294.59
2023-06-29T08:27:06.247Z,98302.53
2023-06-29T08:29:41.107Z,98290.44
2023-06-29T08:32:15.598Z,98302.69
2023-06-29T08:34:47.956Z,98301.81
2023-06-29T08:37:21.865Z,98298.88
2023-06-29T08:39:54.531Z,98290.63
2023-06-29T08:42:27.785Z,98283.56
2023-06-29T08:45:00.152Z,98273.84
2023-06-29T08:47:36.383Z,98284.88
2023-06-29T08:50:11.314Z,98288.16
2023-06-29T08:52:45.134Z,98289.00
2023-06-29T08:55:17.381Z,98280.97
2023-06-29T08:57:50.798Z,98287.38
2023-06-29T09:00:24.063Z,98277.78
2023-06-29T09:02:57.794Z,98269.91
2023-06-29T09:05:29.781Z,98270.25
2023-06-29T09:08:03.994Z,98276.00
2023-06-29T09:10:38.177Z,98281.16
2023-06-29T09:13:14.740Z,98275.06
2023-06-29T09:15:47.099Z,98275.78
2023-06-29T09:18:29.722Z,98276.16
2023-06-29T09:21:05.656Z,98274.56
2023-06-29T09:23:45.071Z,98276.66
2023-06-29T09:26:19.924Z,98273.56
2023-06-29T09:29:01.903Z,98275.81
2023-06-29T09:31:38.737Z,98277.03
2023-06-29T09:34:19.232Z,98284.34
2023-06-29T09:36:51.865Z,98274.28
2023-06-29T09:40:01.154Z,98271.56
2023-06-29T09:42:39.840Z,98278.59
2023-06-29T09:45:12.618Z,98270.16
2023-06-29T09:50:56.006Z,98255.69
2023-06-29T09:53:33.177Z,98257.97
2023-06-29T09:56:06.253Z,98261.81
2023-06-29T09:58:39.262Z,98265.81
2023-06-29T10:01:11.303Z,98256.41
2023-06-29T10:03:43.835Z,98254.25
2023-06-29T10:06:21.407Z,98246.06
2023-06-29T10:08:58.306Z,98261.66
2023-06-29T10:11:33.016Z,98252.00
2023-06-29T10:14:08.281Z,98255.59
2023-06-29T10:16:49.348Z,98251.22
2023-06-29T10:19:23.932Z,98250.06
2023-06-29T10:22:02.806Z,98248.56
2023-06-29T10:27:39.529Z,98247.22
2023-06-29T10:30:12.232Z,98250.38
2023-06-29T10:32:50.984Z,98251.25
2023-06-29T10:35:27.165Z,98239.19
2023-06-29T10:38:00.533Z,98235.38
2023-06-29T10:40:32.510Z,98245.59
2023-06-29T10:43:09.214Z,98238.09
2023-06-29T10:45:41.647Z,98242.94
2023-06-29T10:48:31.365Z,98239.63
2023-06-29T10:51:13.065Z,98237.16
2023-06-29T10:53:50.090Z,98230.66
2023-06-29T10:56:31.205Z,98233.00
2023-06-29T10:59:09.639Z,98238.78
2023-06-29T11:01:41.896Z,98229.25
2023-06-29T11:04:15.073Z,98227.63
2023-06-29T11:06:47.085Z,98225.66
2023-06-29T11:09:21.026Z,98221.91
2023-06-29T11:11:53.099Z,98226.06
2023-06-29T11:14:25.765Z,98226.56
2023-06-29T11:16:57.772Z,98230.13
2023-06-29T11:19:30.847Z,98235.53
2023-06-29T11:22:02.864Z,98226.19
2023-06-29T11:24:36.906Z,98220.44
2023-06-29T11:27:08.910Z,98219.38
2023-06-29T11:29:41.234Z,98226.47
2023-06-29T11:32:13.856Z,98221.06
2023-06-29T11:34:46.505Z,98209.97
2023-06-29T11:37:21.107Z,98210.41
2023-06-29T11:39:57.273Z,98223.91
2023-06-29T11:42:29.291Z,98217.09
2023-06-29T11:45:08.036Z,98216.25
2023-06-29T11:47:40.942Z,98207.72
2023-06-29T11:50:14.342Z,98206.97
2023-06-29T11:52:47.239Z,98210.19
2023-06-29T11:55:21.535Z,98208.25
2023-06-29T11:57:55.976Z,98205.84
2023-06-29T12:00:31.722Z,98198.50
2023-06-29T12:03:09.677Z,98205.22
2023-06-29T12:05:43.681Z,98192.50
2023-06-29T12:08:16.553Z,98190.44
2023-06-29T12:10:49.260Z,98187.84
2023-06-29T12:13:22.252Z,98187.97
2023-06-29T12:18:31.657Z,98178.72
2023-06-29T12:21:06.349Z,98176.81
2023-06-29T12:23:38.496Z,98177.53
2023-06-29T12:26:11.145Z,98178.13
2023-06-29T12:28:43.537Z,98184.63
2023-06-29T12:31:16.196Z,98169.66
2023-06-29T12:33:48.524Z,98177.00
2023-06-29T12:36:22.264Z,98172.84
2023-06-29T12:38:54.236Z,98171.34
2023-06-29T12:41:27.279Z,98176.16
2023-06-29T12:43:59.211Z,98164.38
2023-06-29T12:46:34.203Z,98176.13
2023-06-29T12:49:06.497Z,98169.19
2023-06-29T12:51:39.106Z,98165.22
2023-06-29T12:54:11.424Z,98163.66
2023-06-29T12:56:44.651Z,98168.06
2023-06-29T12:59:17.060Z,98162.56
2023-06-29T13:01:50.508Z,98155.72
2023-06-29T13:04:22.747Z,98166.88
2023-06-29T13:06:56.269Z,98166.41
2023-06-29T13:09:31.338Z,98159.44
2023-06-29T13:12:05.626Z,98166.81
2023-06-29T13:14:38.208Z,98165.09
2023-06-29T13:17:12.262Z,98156.50
2023-06-29T13:19:47.637Z,98155.63
2023-06-29T13:22:20.280Z,98156.34
2023-06-29T13:24:53.450Z,98158.50
2023-06-29T13:27:25.373Z,98155.28
2023-06-29T13:29:58.352Z,98162.91
2023-06-29T13:32:30.690Z,98161.94
2023-06-29T13:35:03.893Z,98154.97
2023-06-29T13:37:36.241Z,98165.59
2023-06-29T13:40:09.426Z,98159.19
2023-06-29T13:42:42.795Z,98154.34
2023-06-29T13:45:15.390Z,98151.75
2023-06-29T13:47:47.503Z,98156.28
2023-06-29T13:50:22.727Z,98145.31
2023-06-29T13:52:57.553Z,98151.81
2023-06-29T13:55:29.939Z,98142.75
2023-06-29T13:58:02.353Z,98148.25
2023-06-29T14:00:35.394Z,98138.38
2023-06-29T14:03:07.549Z,98133.63
2023-06-29T14:05:40.632Z,98132.81
2023-06-29T14:08:12.594Z,98128.22
2023-06-29T14:10:45.689Z,98128.84
2023-06-29T14:13:17.625Z,98119.09
2023-06-29T14:15:50.235Z,98120.78
2023-06-29T14:18:22.327Z,98112.47
2023-06-29T14:20:54.981Z,98115.34
2023-06-29T14:23:26.912Z,98109.09
2023-06-29T14:26:00.350Z,98109.94
2023-06-29T14:28:32.645Z,98112.22
2023-06-29T14:31:04.782Z,98107.84
2023-06-29T14:33:36.900Z,98096.63
2023-06-29T14:36:09.690Z,98098.91
2023-06-29T14:38:41.692Z,98104.47
2023-06-29T14:41:14.721Z,98101.13
2023-06-29T14:43:46.649Z,98097.25
2023-06-29T14:46:19.690Z,98089.28
2023-06-29T14:48:51.794Z,98088.19
2023-06-29T14:51:24.450Z,98088.72
2023-06-29T14:53:56.775Z,98090.72
2023-06-29T14:56:29.824Z,98092.88
2023-06-29T14:59:02.591Z,98092.84
2023-06-29T15:01:35.786Z,98090.06
2023-06-29T15:04:08.350Z,98083.91
2023-06-29T15:06:41.362Z,98082.81
2023-06-29T15:09:13.876Z,98090.53
2023-06-29T15:11:46.788Z,98090.22
2023-06-29T15:14:18.870Z,98075.75
2023-06-29T15:16:51.641Z,98075.59
2023-06-29T15:19:23.660Z,98079.09
2023-06-29T15:22:00.143Z,98068.59
2023-06-29T15:24:32.185Z,98071.88
2023-06-29T15:27:05.405Z,98063.91
2023-06-29T15:29:37.336Z,98062.81
2023-06-29T15:32:10.465Z,98066.88
2023-06-29T15:34:42.805Z,98059.97
2023-06-29T15:37:15.443Z,98059.19
2023-06-29T15:39:47.493Z,98053.47
2023-06-29T15:42:20.445Z,98054.94
2023-06-29T15:44:52.336Z,98048.72
2023-06-29T15:47:25.037Z,98047.97
2023-06-29T15:49:57.062Z,98050.22
2023-06-29T15:52:29.791Z,98038.09
2023-06-29T15:55:02.086Z,98037.91
2023-06-29T15:57:34.722Z,98033.38
2023-06-29T16:00:07.601Z,98039.09
2023-06-29T16:02:46.477Z,98033.84
2023-06-29T16:05:18.473Z,98027.13
2023-06-29T16:07:52.948Z,98039.00
2023-06-29T16:10:25.247Z,98028.69
2023-06-29T16:12:58.237Z,98040.91
2023-06-29T16:15:30.754Z,98042.03
2023-06-29T16:18:03.706Z,98038.25
2023-06-29T16:20:38.245Z,98032.19
2023-06-29T16:23:12.270Z,98039.88
2023-06-29T16:25:44.410Z,98035.47
2023-06-29T16:28:17.361Z,98045.44
2023-06-29T16:30:49.791Z,98034.19
2023-06-29T16:33:22.861Z,98040.53
2023-06-29T16:35:55.573Z,98031.94
2023-06-29T16:38:28.163Z,98034.44
2023-06-29T16:41:00.179Z,98035.22
2023-06-29T16:43:32.803Z,98035.47
2023-06-29T16:46:05.018Z,98040.16
2023-06-29T16:48:37.658Z,98042.44
2023-06-29T16:51:09.672Z,98039.84
2023-06-29T16:53:42.342Z,98039.53
2023-06-29T16:56:14.322Z,98043.13
2023-06-29T16:58:47.130Z,98050.81
2023-06-29T17:01:19.283Z,98046.06
2023-06-29T17:03:52.323Z,98048.78
2023-06-29T17:06:25.330Z,98042.41
2023-06-29T17:08:58.419Z,98051.25
2023-06-29T17:11:30.381Z,98039.06
2023-06-29T17:14:03.620Z,98040.69
2023-06-29T17:16:35.783Z,98041.81
2023-06-29T17:19:09.882Z,98046.81
2023-06-29T17:21:42.243Z,98043.84
2023-06-29T17:24:14.832Z,98045.59
2023-06-29T17:26:46.782Z,98040.47
2023-06-29T17:29:19.210Z,98045.75
2023-06-29T17:31:51.143Z,98044.16
2023-06-29T17:34:23.801Z,98047.31
2023-06-29T17:36:55.837Z,98044.84
2023-06-29T17:39:28.431Z,98042.88
2023-06-29T17:42:00.646Z,98039.97
2023-06-29T17:44:33.346Z,98043.28
2023-06-29T17:47:06.018Z,98043.22
2023-06-29T17:49:38.601Z,98035.88
2023-06-29T17:52:11.215Z,98044.09
2023-06-29T17:54:43.794Z,98033.88
2023-06-29T17:57:15.718Z,98043.28
2023-06-29T17:59:48.334Z,98037.41
2023-06-29T18:02:20.777Z,98044.09
2023-06-29T18:04:53.565Z,98041.47
2023-06-29T18:07:25.951Z,98043.13
2023-06-29T18:10:00.805Z,98044.81
2023-06-29T18:12:33.504Z,98047.66
2023-06-29T18:15:10.089Z,98043.56
2023-06-29T18:17:42.064Z,98051.91
2023-06-29T18:20:14.717Z,98062.25
2023-06-29T18:22:47.045Z,98049.06
2023-06-29T18:25:20.049Z,98058.78
2023-06-29T18:27:52.712Z,98058.34
2023-06-29T18:30:26.613Z,98046.25
2023-06-29T18:32:58.953Z,98050.88
2023-06-29T18:35:32.166Z,98050.84
2023-06-29T18:38:04.838Z,98058.97
2023-06-29T18:40:37.191Z,98058.47
2023-06-29T18:43:09.944Z,98055.41
2023-06-29T18:45:42.740Z,98055.41
2023-06-29T18:48:15.163Z,98045.50
2023-06-29T18:51:07.867Z,98053.81
2023-06-29T18:53:40.885Z,98055.16
2023-06-29T18:56:15.310Z,98053.75
2023-06-29T18:58:48.361Z,98047.66
2023-06-29T19:01:22.102Z,98055.16
2023-06-29T19:03:54.485Z,98042.66
2023-06-29T19:06:26.870Z,98043.69
2023-06-29T19:08:59.690Z,98037.75
2023-06-29T19:11:32.422Z,98043.78
2023-06-29T19:14:04.741Z,98038.94
2023-06-29T19:16:38.905Z,98042.25
2023-06-29T19:19:11.295Z,98050.50
2023-06-29T19:21:48.952Z,98053.06
2023-06-29T19:24:22.029Z,98045.59
2023-06-29T19:26:54.369Z,98053.00
2023-06-29T19:29:26.362Z,98060.75
2023-06-29T19:31:59.614Z,98059.66
2023-06-29T19:34:32.323Z,98065.38
2023-06-29T19:37:05.377Z,98060.16
2023-06-29T19:39:38.138Z,98068.63
2023-06-29T19:42:10.095Z,98067.50
2023-06-29T19:44:43.195Z,98061.38
2023-06-29T19:47:15.190Z,98055.72
2023-06-29T19:49:47.557Z,98060.00
2023-06-29T19:52:20.356Z,98062.91
2023-06-29T19:54:52.718Z,98066.06
2023-06-29T19:57:24.735Z,98070.31
2023-06-29T19:59:56.814Z,98069.34
2023-06-29T20:02:29.708Z,98079.50
2023-06-29T20:05:02.830Z,98073.47
2023-06-29T20:07:35.380Z,98061.78
2023-06-29T20:10:08.199Z,98064.56
2023-06-29T20:12:40.539Z,98059.22
2023-06-29T20:15:12.498Z,98071.41
2023-06-29T20:17:45.729Z,98070.16
2023-06-29T20:20:18.072Z,98069.16
2023-06-29T20:22:50.455Z,98072.38
2023-06-29T20:25:22.865Z,98073.53
2023-06-29T20:27:55.628Z,98078.53
2023-06-29T20:30:27.974Z,98071.09
2023-06-29T20:33:00.294Z,98073.78
2023-06-29T20:35:33.288Z,98069.19
2023-06-29T20:38:05.752Z,98076.72
2023-06-29T20:40:38.536Z,98077.53
2023-06-29T20:43:10.446Z,98072.38
2023-06-29T20:45:49.728Z,98075.69
2023-06-29T20:48:22.138Z,98076.59
2023-06-29T20:51:00.947Z,98072.38
2023-06-29T20:53:44.944Z,98073.81
2023-06-29T20:56:17.753Z,98070.31
2023-06-29T20:58:49.671Z,98077.88
2023-06-29T21:04:14.911Z,98068.13
2023-06-29T21:06:47.288Z,98068.66
2023-06-29T21:09:19.339Z,98076.31
2023-06-29T21:11:53.278Z,98071.59
2023-06-29T21:14:27.517Z,98066.47
2023-06-29T21:17:00.476Z,98066.19
2023-06-29T21:19:33.705Z,98061.84
2023-06-29T21:22:06.935Z,98060.91
2023-06-29T21:24:40.988Z,98060.16
2023-06-29T21:27:19.997Z,98067.06
2023-06-29T21:29:52.522Z,98059.88
2023-06-29T21:32:25.547Z,98069.34
2023-06-29T21:34:57.666Z,98065.59
2023-06-29T21:37:31.339Z,98057.38
2023-06-29T21:40:06.722Z,98049.38
2023-06-29T21:42:40.321Z,98054.06
2023-06-29T21:45:13.084Z,98055.41
2023-06-29T21:47:45.858Z,98054.69
2023-06-29T21:50:17.985Z,98049.78
2023-06-29T21:52:50.705Z,98048.34
2023-06-29T21:55:23.034Z,98041.13
2023-06-29T21:57:55.000Z,98038.19
2023-06-29T22:00:27.745Z,98040.03
2023-06-29T22:02:59.822Z,98037.22
2023-06-29T22:05:32.955Z,98037.00
2023-06-29T22:08:05.117Z,98038.50
2023-06-29T22:10:38.212Z,98037.03
2023-06-29T22:13:13.333Z,98040.00
2023-06-29T22:15:46.625Z,98037.25
2023-06-29T22:18:21.590Z,98028.66
2023-06-29T22:20:55.174Z,98031.75
2023-06-29T22:23:30.842Z,98025.38
2023-06-29T22:26:03.240Z,98034.38
2023-06-29T22:28:35.161Z,98033.03
2023-06-29T22:31:08.325Z,98034.22
2023-06-29T22:33:40.838Z,98031.56
2023-06-29T22:36:15.272Z,98034.22
2023-06-29T22:38:47.886Z,98024.44
2023-06-29T22:41:19.811Z,98026.78
2023-06-29T22:43:55.449Z,98029.72
2023-06-29T22:46:28.483Z,98030.22
2023-06-29T22:49:01.487Z,98018.22
2023-06-29T22:51:33.880Z,98017.16
2023-06-29T22:54:06.483Z,98015.69
2023-06-29T22:56:39.236Z,98018.66
2023-06-29T22:59:13.404Z,98016.25
2023-06-29T23:01:46.139Z,98019.66
2023-06-29T23:04:18.545Z,98016.75
2023-06-29T23:06:55.019Z,98020.53
2023-06-29T23:09:28.599Z,98008.41
2023-06-29T23:12:05.282Z,98012.06
2023-06-29T23:14:38.478Z,98005.09
2023-06-29T23:17:10.388Z,98010.19
2023-06-29T23:19:45.957Z,98007.38
2023-06-29T23:22:19.884Z,98006.72
2023-06-29T23:24:53.950Z,98003.06
2023-06-29T23:27:27.368Z,98002.38
2023-06-29T23:29:59.683Z,98002.06
2023-06-29T23:32:32.009Z,97998.75
2023-06-29T23:35:09.067Z,97998.66
2023-06-29T23:37:42.202Z,98000.97
2023-06-29T23:40:16.098Z,97996.63
2023-06-29T23:42:49.269Z,97999.25
2023-06-29T23:45:22.480Z,97997.47
2023-06-29T23:47:56.297Z,98000.03
2023-06-29T23:50:28.216Z,98002.28
2023-06-29T23:53:01.049Z,97995.00
2023-06-29T23:55:33.003Z,97995.03
2023-06-29T23:58:06.286Z,97994.59
